Time;durP1;ratioP1;P1;durP2;ratioP2;P2;SDS_P1;SDS_P2;PMS_P1;PMS_P2;Temp;Humidity;BMP_temperature;BMP_pressure;BME280_temperature;BME280_humidity;BME280_pressure;Samples;Min_cycle;Max_cycle;Signal;HPM_P1;HPM_P2
2023/07/24 00:01:54;;;;;;;;;;;22.40;72.10;;;;;;5014715;28;19964;-70
2023/07/24 00:04:19;;;;;;;;;;;22.50;72.00;;;;;;5014092;28;19917;-70
2023/07/24 00:06:44;;;;;;;;;;;22.50;72.00;;;;;;5014221;28;20369;-70
2023/07/24 00:09:10;;;;;;;;;;;22.60;71.80;;;;;;5014957;28;20357;-69
2023/07/24 00:11:35;;;;;;;;;;;22.50;71.60;;;;;;5016843;28;19909;-69
2023/07/24 00:14:01;;;;;;;;;;;22.50;71.50;;;;;;5013834;28;19917;-69
2023/07/24 00:16:26;;;;;;;;;;;22.50;71.40;;;;;;5013777;28;19969;-69
2023/07/24 00:18:52;;;;;;;;;;;22.40;71.40;;;;;;5014151;28;19964;-69
2023/07/24 00:21:17;;;;;;;;;;;22.40;71.60;;;;;;5032084;28;19909;-69
2023/07/24 00:23:42;;;;;;;;;;;22.50;71.70;;;;;;5033265;28;19910;-69
2023/07/24 00:26:08;;;;;;;;;;;22.50;72.00;;;;;;5020160;28;19910;-70
2023/07/24 00:28:33;;;;;;;;;;;22.50;72.00;;;;;;5013842;28;19956;-70
2023/07/24 00:30:59;;;;;;;;;;;22.50;71.90;;;;;;5013224;28;20427;-69
2023/07/24 00:33:24;;;;;;;;;;;22.50;71.70;;;;;;5013389;28;19913;-70
2023/07/24 00:35:50;;;;;;;;;;;22.50;71.40;;;;;;5013815;28;19917;-70
2023/07/24 00:38:15;;;;;;;;;;;22.50;71.50;;;;;;5013396;28;19913;-70
2023/07/24 00:40:41;;;;;;;;;;;22.40;71.60;;;;;;5013223;28;19917;-70
2023/07/24 00:43:06;;;;;;;;;;;22.40;71.80;;;;;;5013182;28;20373;-70
2023/07/24 00:45:32;;;;;;;;;;;22.50;71.90;;;;;;5022863;28;19948;-69
2023/07/24 00:47:58;;;;;;;;;;;22.50;71.90;;;;;;5013422;28;20243;-69
2023/07/24 00:50:24;;;;;;;;;;;22.50;72.00;;;;;;5012918;28;20345;-69
2023/07/24 00:52:50;;;;;;;;;;;22.50;72.10;;;;;;5012846;28;20285;-69
2023/07/24 00:55:16;;;;;;;;;;;22.60;72.00;;;;;;5012908;28;19918;-70
2023/07/24 00:57:42;;;;;;;;;;;22.70;72.00;;;;;;5013229;28;19913;-69
2023/07/24 01:00:08;;;;;;;;;;;22.70;71.90;;;;;;5013052;28;19924;-69
2023/07/24 01:02:34;;;;;;;;;;;22.70;71.90;;;;;;5013217;28;19953;-69
2023/07/24 01:05:00;;;;;;;;;;;22.70;71.90;;;;;;5012761;28;19925;-69
2023/07/24 01:07:25;;;;;;;;;;;22.80;71.90;;;;;;5012621;28;20420;-69
2023/07/24 01:09:51;;;;;;;;;;;22.80;71.90;;;;;;5012695;28;19948;-69
2023/07/24 01:12:22;;;;;;;;;;;22.80;71.80;;;;;;4994956;28;19910;-69
2023/07/24 01:14:54;;;;;;;;;;;22.80;71.80;;;;;;5012624;28;19924;-70
2023/07/24 01:17:24;;;;;;;;;;;22.80;71.50;;;;;;5012464;28;19920;-69
2023/07/24 01:19:52;;;;;;;;;;;22.70;71.50;;;;;;5017647;28;19918;-70
2023/07/24 01:22:27;;;;;;;;;;;22.70;71.30;;;;;;5012030;28;19910;-69
2023/07/24 01:24:53;;;;;;;;;;;22.60;71.20;;;;;;5012515;28;20361;-69
2023/07/24 01:27:20;;;;;;;;;;;22.50;71.20;;;;;;5012589;28;19916;-69
2023/07/24 01:29:45;;;;;;;;;;;22.50;71.20;;;;;;5012513;28;19968;-69
2023/07/24 01:32:11;;;;;;;;;;;22.40;71.20;;;;;;5012349;28;19909;-69
2023/07/24 01:34:36;;;;;;;;;;;22.40;71.10;;;;;;5012567;28;19929;-69
2023/07/24 01:37:02;;;;;;;;;;;22.30;71.00;;;;;;5011904;28;20382;-69
2023/07/24 01:39:27;;;;;;;;;;;22.20;70.90;;;;;;5012497;28;20005;-69
2023/07/24 01:41:53;;;;;;;;;;;22.10;70.80;;;;;;5011589;28;19913;-69
2023/07/24 01:44:18;;;;;;;;;;;22.10;70.80;;;;;;5012489;28;19917;-69
2023/07/24 01:46:44;;;;;;;;;;;21.90;70.70;;;;;;5012140;28;19932;-69
2023/07/24 01:49:10;;;;;;;;;;;21.90;71.00;;;;;;5012799;28;19918;-69
2023/07/24 01:51:35;;;;;;;;;;;21.90;71.30;;;;;;5011462;28;19920;-69
2023/07/24 01:54:01;;;;;;;;;;;21.90;71.40;;;;;;5012023;28;20008;-69
2023/07/24 01:56:27;;;;;;;;;;;21.90;71.50;;;;;;5011819;28;20324;-69
2023/07/24 01:58:52;;;;;;;;;;;21.90;71.60;;;;;;5012201;28;20369;-69
2023/07/24 02:01:18;;;;;;;;;;;21.90;71.60;;;;;;5011533;28;19917;-69
2023/07/24 02:03:43;;;;;;;;;;;21.90;71.70;;;;;;5011579;28;20428;-69
2023/07/24 02:06:09;;;;;;;;;;;21.90;71.60;;;;;;5024556;28;19917;-69
2023/07/24 02:08:34;;;;;;;;;;;21.90;71.70;;;;;;5031832;28;19963;-69
2023/07/24 02:10:59;;;;;;;;;;;21.90;71.60;;;;;;5031324;28;20022;-70
2023/07/24 02:13:25;;;;;;;;;;;21.90;71.60;;;;;;5030980;28;20357;-70
2023/07/24 02:15:50;;;;;;;;;;;21.90;71.60;;;;;;5031684;28;19917;-70
2023/07/24 02:18:16;;;;;;;;;;;21.80;71.40;;;;;;5031801;28;19913;-70
2023/07/24 02:20:41;;;;;;;;;;;21.80;71.60;;;;;;5031666;28;20177;-70
2023/07/24 02:23:07;;;;;;;;;;;21.80;71.70;;;;;;5030677;28;19913;-70
2023/07/24 02:25:32;;;;;;;;;;;21.80;71.60;;;;;;5013441;28;19935;-69
2023/07/24 02:27:58;;;;;;;;;;;21.80;71.70;;;;;;5013605;28;20023;-69
2023/07/24 02:30:23;;;;;;;;;;;21.80;71.70;;;;;;5024769;28;19972;-69
2023/07/24 02:32:49;;;;;;;;;;;21.80;71.60;;;;;;5010961;28;19967;-70
2023/07/24 02:35:14;;;;;;;;;;;21.80;71.60;;;;;;5011803;28;19918;-69
2023/07/24 02:37:40;;;;;;;;;;;21.80;71.50;;;;;;5011624;28;19922;-69
2023/07/24 02:40:06;;;;;;;;;;;21.80;71.40;;;;;;5025397;28;20297;-69
2023/07/24 02:42:31;;;;;;;;;;;21.80;71.40;;;;;;5013494;28;19959;-69
2023/07/24 02:44:57;;;;;;;;;;;21.70;71.30;;;;;;5030865;28;20599;-70
2023/07/24 02:47:22;;;;;;;;;;;21.70;71.30;;;;;;5031246;28;20395;-70
2023/07/24 02:49:47;;;;;;;;;;;21.70;71.30;;;;;;5035276;28;19979;-70
2023/07/24 02:52:13;;;;;;;;;;;21.60;71.20;;;;;;5035067;28;19913;-70
2023/07/24 02:54:38;;;;;;;;;;;21.60;71.30;;;;;;5034828;28;19963;-70
2023/07/24 02:57:04;;;;;;;;;;;21.60;71.30;;;;;;5035059;28;19939;-70
2023/07/24 02:59:29;;;;;;;;;;;21.60;71.30;;;;;;5035376;28;19971;-70
2023/07/24 03:01:55;;;;;;;;;;;21.50;71.20;;;;;;5034781;28;19920;-70
2023/07/24 03:04:21;;;;;;;;;;;21.50;71.20;;;;;;5034961;28;19914;-70
2023/07/24 03:06:46;;;;;;;;;;;21.50;71.30;;;;;;5034791;28;20015;-70
2023/07/24 03:09:11;;;;;;;;;;;21.50;71.40;;;;;;5035275;28;20010;-70
2023/07/24 03:11:37;;;;;;;;;;;21.50;71.60;;;;;;5034360;28;20423;-69
2023/07/24 03:14:02;;;;;;;;;;;21.50;71.60;;;;;;5034370;28;20050;-69
2023/07/24 03:16:28;;;;;;;;;;;21.50;71.50;;;;;;5034730;28;19979;-69
2023/07/24 03:18:53;;;;;;;;;;;21.40;71.50;;;;;;5035145;28;19927;-69
2023/07/24 03:21:19;;;;;;;;;;;21.40;71.50;;;;;;5003416;28;19959;-69
2023/07/24 03:23:44;;;;;;;;;;;21.40;71.50;;;;;;5014362;28;19913;-70
2023/07/24 03:26:10;;;;;;;;;;;21.40;71.50;;;;;;5014641;28;19920;-70
2023/07/24 03:28:35;;;;;;;;;;;21.40;71.60;;;;;;5014929;28;20354;-70
2023/07/24 03:31:00;;;;;;;;;;;21.40;71.70;;;;;;5014641;28;20361;-70
2023/07/24 03:33:26;;;;;;;;;;;21.40;71.70;;;;;;5014421;28;19909;-70
2023/07/24 03:35:51;;;;;;;;;;;21.40;71.70;;;;;;5014735;28;19917;-70
2023/07/24 03:38:17;;;;;;;;;;;21.40;71.70;;;;;;5014621;28;19917;-69
2023/07/24 03:40:42;;;;;;;;;;;21.50;71.70;;;;;;5014719;28;19914;-69
2023/07/24 03:43:08;;;;;;;;;;;21.50;71.80;;;;;;5014416;28;19913;-69
2023/07/24 03:45:33;;;;;;;;;;;21.50;71.80;;;;;;5014187;28;20403;-70
2023/07/24 03:47:59;;;;;;;;;;;21.50;71.90;;;;;;5014793;28;19924;-71
2023/07/24 03:50:24;;;;;;;;;;;21.50;72.00;;;;;;5014917;28;19918;-70
2023/07/24 03:52:50;;;;;;;;;;;21.70;72.20;;;;;;5014202;28;19949;-70
2023/07/24 03:55:15;;;;;;;;;;;21.80;72.30;;;;;;5015377;28;19939;-70
2023/07/24 03:57:40;;;;;;;;;;;21.90;72.30;;;;;;5032823;28;19917;-71
2023/07/24 04:00:06;;;;;;;;;;;22.00;72.40;;;;;;5029709;28;20008;-70
2023/07/24 04:02:32;;;;;;;;;;;22.20;72.50;;;;;;5014185;28;20454;-70
2023/07/24 04:04:57;;;;;;;;;;;22.30;72.50;;;;;;5014098;28;19925;-70
2023/07/24 04:07:23;;;;;;;;;;;22.40;72.40;;;;;;5013985;28;20288;-70
2023/07/24 04:09:48;;;;;;;;;;;22.50;72.20;;;;;;5014097;28;19963;-70
2023/07/24 04:12:13;;;;;;;;;;;22.50;72.10;;;;;;5013845;28;19920;-71
2023/07/24 04:14:39;;;;;;;;;;;22.50;71.90;;;;;;5014019;28;19914;-70
2023/07/24 04:17:04;;;;;;;;;;;22.50;71.70;;;;;;5013431;28;19968;-70
2023/07/24 04:19:30;;;;;;;;;;;22.50;71.70;;;;;;5018787;28;19963;-70
2023/07/24 04:21:55;;;;;;;;;;;22.50;71.70;;;;;;5014338;28;20317;-70
2023/07/24 04:24:21;;;;;;;;;;;22.50;71.90;;;;;;5013510;28;20397;-70
2023/07/24 04:26:46;;;;;;;;;;;22.50;72.10;;;;;;5013207;28;19913;-70
2023/07/24 04:29:12;;;;;;;;;;;22.70;72.40;;;;;;5015916;28;20383;-70
2023/07/24 04:31:37;;;;;;;;;;;22.70;72.40;;;;;;5030295;28;20292;-70
2023/07/24 04:34:02;;;;;;;;;;;22.90;72.40;;;;;;5033251;28;19918;-70
2023/07/24 04:36:28;;;;;;;;;;;23.00;72.70;;;;;;5023707;28;19916;-71
2023/07/24 04:38:53;;;;;;;;;;;23.20;72.50;;;;;;5032894;28;20023;-71
2023/07/24 04:41:19;;;;;;;;;;;23.30;72.30;;;;;;5032750;28;19909;-71
2023/07/24 04:43:44;;;;;;;;;;;23.30;72.10;;;;;;5032563;28;19913;-69
2023/07/24 04:46:10;;;;;;;;;;;23.40;72.50;;;;;;5022359;28;20389;-70
2023/07/24 04:48:36;;;;;;;;;;;23.50;72.10;;;;;;5028957;28;20361;-70
2023/07/24 04:51:01;;;;;;;;;;;23.50;71.50;;;;;;5017229;28;19920;-69
2023/07/24 04:53:27;;;;;;;;;;;23.50;71.30;;;;;;5012828;28;19921;-69
2023/07/24 04:55:53;;;;;;;;;;;23.40;71.20;;;;;;5023800;28;19924;-70
2023/07/24 04:58:18;;;;;;;;;;;23.30;71.30;;;;;;5013866;28;20361;-69
2023/07/24 05:00:44;;;;;;;;;;;23.30;71.20;;;;;;5023860;28;20449;-69
2023/07/24 05:03:11;;;;;;;;;;;23.20;71.10;;;;;;5012903;28;19909;-70
2023/07/24 05:05:37;;;;;;;;;;;23.10;71.10;;;;;;5013102;28;19917;-70
2023/07/24 05:08:02;;;;;;;;;;;23.10;71.20;;;;;;5012751;28;19920;-69
2023/07/24 05:10:28;;;;;;;;;;;23.00;71.40;;;;;;5026978;28;19925;-68
2023/07/24 05:12:56;;;;;;;;;;;23.00;71.60;;;;;;5026952;28;19917;-68
2023/07/24 05:15:22;;;;;;;;;;;23.00;71.60;;;;;;5032085;28;20369;-68
2023/07/24 05:17:47;;;;;;;;;;;23.00;71.50;;;;;;5032017;28;19913;-69
2023/07/24 05:20:12;;;;;;;;;;;22.90;71.40;;;;;;5004597;28;19917;-70
2023/07/24 05:22:38;;;;;;;;;;;23.00;71.60;;;;;;5012488;28;19909;-69
2023/07/24 05:25:03;;;;;;;;;;;23.00;71.50;;;;;;5012781;28;19921;-69
2023/07/24 05:27:29;;;;;;;;;;;23.00;71.40;;;;;;5021311;28;19920;-70
2023/07/24 05:29:55;;;;;;;;;;;23.00;71.40;;;;;;5029843;28;19917;-70
2023/07/24 05:32:20;;;;;;;;;;;23.00;71.60;;;;;;5012404;28;19910;-68
2023/07/24 05:34:46;;;;;;;;;;;22.90;71.50;;;;;;5016275;28;20025;-69
2023/07/24 05:37:11;;;;;;;;;;;22.80;71.50;;;;;;5024605;28;19920;-68
2023/07/24 05:39:37;;;;;;;;;;;22.70;71.60;;;;;;5029497;28;19924;-68
2023/07/24 05:42:03;;;;;;;;;;;22.70;71.70;;;;;;5029428;28;19917;-68
2023/07/24 05:44:28;;;;;;;;;;;22.70;72.10;;;;;;5031086;28;20028;-67
2023/07/24 05:46:54;;;;;;;;;;;22.70;72.20;;;;;;5031627;28;19921;-68
2023/07/24 05:49:19;;;;;;;;;;;22.70;72.50;;;;;;5031167;28;19923;-69
2023/07/24 05:51:45;;;;;;;;;;;22.70;72.30;;;;;;5014122;28;19909;-70
2023/07/24 05:54:10;;;;;;;;;;;22.70;72.00;;;;;;5011678;28;19929;-71
2023/07/24 05:56:35;;;;;;;;;;;22.60;71.90;;;;;;5017209;28;19925;-69
2023/07/24 05:59:01;;;;;;;;;;;22.50;71.70;;;;;;5041780;28;19921;-69
2023/07/24 06:01:28;;;;;;;;;;;22.40;71.90;;;;;;5028799;28;21454;-70
2023/07/24 06:03:53;;;;;;;;;;;22.30;72.00;;;;;;5026858;28;19975;-69
2023/07/24 06:06:19;;;;;;;;;;;22.30;72.30;;;;;;5028009;28;19925;-68
2023/07/24 06:08:45;;;;;;;;;;;22.30;72.20;;;;;;5025951;28;19920;-68
2023/07/24 06:11:10;;;;;;;;;;;22.30;72.50;;;;;;5027658;28;19923;-69
2023/07/24 06:13:36;;;;;;;;;;;22.20;72.90;;;;;;5021856;28;19912;-69
2023/07/24 06:16:01;;;;;;;;;;;22.20;73.00;;;;;;5031270;28;19952;-69
2023/07/24 06:18:26;;;;;;;;;;;22.20;73.10;;;;;;5037177;28;19920;-69
2023/07/24 06:20:52;;;;;;;;;;;22.20;73.30;;;;;;5029268;28;19979;-69
2023/07/24 06:23:18;;;;;;;;;;;22.20;73.50;;;;;;5028128;28;19922;-69
2023/07/24 06:25:43;;;;;;;;;;;22.20;73.30;;;;;;5027740;28;19941;-69
2023/07/24 06:28:09;;;;;;;;;;;22.20;73.40;;;;;;5045171;28;19921;-68
2023/07/24 06:30:34;;;;;;;;;;;22.20;73.30;;;;;;5039432;28;20450;-68
2023/07/24 06:33:00;;;;;;;;;;;22.20;73.40;;;;;;5033776;28;19988;-68
2023/07/24 06:35:25;;;;;;;;;;;22.20;73.50;;;;;;5017613;28;20288;-68
2023/07/24 06:37:50;;;;;;;;;;;22.30;73.60;;;;;;5011773;28;19960;-68
2023/07/24 06:40:16;;;;;;;;;;;22.30;73.50;;;;;;5026867;28;19921;-68
2023/07/24 06:42:41;;;;;;;;;;;22.30;73.60;;;;;;5031180;28;20438;-68
2023/07/24 06:45:07;;;;;;;;;;;22.40;73.50;;;;;;5030737;28;19936;-68
2023/07/24 06:47:33;;;;;;;;;;;22.40;73.40;;;;;;5011393;28;20118;-68
2023/07/24 06:49:58;;;;;;;;;;;22.50;73.50;;;;;;5019712;28;19913;-69
2023/07/24 06:52:23;;;;;;;;;;;22.50;73.30;;;;;;5010507;28;19968;-68
2023/07/24 06:54:49;;;;;;;;;;;22.50;73.30;;;;;;5010724;28;19913;-68
2023/07/24 06:57:14;;;;;;;;;;;22.50;73.40;;;;;;5010906;28;19927;-68
2023/07/24 06:59:40;;;;;;;;;;;22.60;73.60;;;;;;5030959;28;19975;-68
2023/07/24 07:02:05;;;;;;;;;;;22.70;73.90;;;;;;5037411;28;19924;-69
2023/07/24 07:04:31;;;;;;;;;;;22.70;73.70;;;;;;5047541;28;19966;-68
2023/07/24 07:06:56;;;;;;;;;;;22.80;73.50;;;;;;5030649;28;19925;-68
2023/07/24 07:09:22;;;;;;;;;;;22.80;73.60;;;;;;5027494;28;19971;-68
2023/07/24 07:11:47;;;;;;;;;;;22.90;73.90;;;;;;5022055;28;19940;-67
2023/07/24 07:14:12;;;;;;;;;;;23.00;73.80;;;;;;5028883;28;19913;-67
2023/07/24 07:16:38;;;;;;;;;;;23.10;73.80;;;;;;5030843;28;19914;-67
2023/07/24 07:19:04;;;;;;;;;;;23.20;73.70;;;;;;5036930;28;19919;-67
2023/07/24 07:21:29;;;;;;;;;;;23.30;73.90;;;;;;5019511;28;19920;-67
2023/07/24 07:23:55;;;;;;;;;;;23.50;73.50;;;;;;5034546;28;19913;-67
2023/07/24 07:26:20;;;;;;;;;;;23.80;74.70;;;;;;5022676;28;19917;-67
2023/07/24 07:28:46;;;;;;;;;;;24.40;75.10;;;;;;5022879;28;19917;-67
2023/07/24 07:31:11;;;;;;;;;;;25.10;75.40;;;;;;5024552;28;19917;-67
2023/07/24 07:33:37;;;;;;;;;;;25.80;75.10;;;;;;5023553;28;19916;-67
2023/07/24 07:36:03;;;;;;;;;;;26.30;73.30;;;;;;5031196;28;19917;-67
2023/07/24 07:38:29;;;;;;;;;;;26.60;72.30;;;;;;5019480;28;20365;-68
2023/07/24 07:40:55;;;;;;;;;;;26.80;71.20;;;;;;5033251;28;19921;-67
2023/07/24 07:43:20;;;;;;;;;;;26.90;71.00;;;;;;5014296;28;19921;-68
2023/07/24 07:45:46;;;;;;;;;;;27.00;70.90;;;;;;5023597;28;20381;-69
2023/07/24 07:48:11;;;;;;;;;;;27.00;70.00;;;;;;5024468;28;19917;-69
2023/07/24 07:50:37;;;;;;;;;;;27.00;70.40;;;;;;5037493;28;20379;-69
2023/07/24 07:53:02;;;;;;;;;;;27.00;70.10;;;;;;5013864;28;19948;-69
2023/07/24 07:55:27;;;;;;;;;;;27.00;70.40;;;;;;5038806;28;19983;-70
2023/07/24 07:57:53;;;;;;;;;;;27.00;70.50;;;;;;5031896;28;19925;-70
2023/07/24 08:00:18;;;;;;;;;;;27.00;70.30;;;;;;5033002;28;19918;-70
2023/07/24 08:02:44;;;;;;;;;;;27.00;70.30;;;;;;5035707;28;19971;-70
2023/07/24 08:05:10;;;;;;;;;;;26.90;70.20;;;;;;5044968;28;19971;-68
2023/07/24 08:07:35;;;;;;;;;;;26.80;70.00;;;;;;5014028;28;19924;-68
2023/07/24 08:10:01;;;;;;;;;;;26.80;70.20;;;;;;5020346;28;19972;-69
2023/07/24 08:12:27;;;;;;;;;;;26.70;70.40;;;;;;5013719;28;19914;-69
2023/07/24 08:14:52;;;;;;;;;;;26.70;70.80;;;;;;5022279;28;19963;-70
2023/07/24 08:17:17;;;;;;;;;;;26.70;70.50;;;;;;4999733;28;20526;-70
2023/07/24 08:19:43;;;;;;;;;;;26.80;71.40;;;;;;5037927;28;19913;-71
2023/07/24 08:22:08;;;;;;;;;;;27.20;72.20;;;;;;5033412;28;19987;-71
2023/07/24 08:24:36;;;;;;;;;;;27.70;72.40;;;;;;5046695;28;20417;-71
2023/07/24 08:27:02;;;;;;;;;;;28.00;72.30;;;;;;5013806;28;20389;-71
2023/07/24 08:29:28;;;;;;;;;;;28.30;71.60;;;;;;5022818;28;19920;-71
2023/07/24 08:31:53;;;;;;;;;;;28.30;70.70;;;;;;5017073;28;20178;-72
2023/07/24 08:34:18;;;;;;;;;;;28.20;70.70;;;;;;5032149;28;19913;-72
2023/07/24 08:36:44;;;;;;;;;;;28.00;70.40;;;;;;5033053;28;19967;-72
2023/07/24 08:39:09;;;;;;;;;;;27.80;71.20;;;;;;5052813;28;20349;-72
2023/07/24 08:41:37;;;;;;;;;;;27.70;71.50;;;;;;5036978;28;19917;-72
2023/07/24 08:44:04;;;;;;;;;;;27.70;71.80;;;;;;5014017;28;19967;-72
2023/07/24 08:46:30;;;;;;;;;;;27.70;70.50;;;;;;5031050;28;19913;-72
2023/07/24 08:48:55;;;;;;;;;;;27.50;70.90;;;;;;5052073;28;19966;-72
2023/07/24 08:51:22;;;;;;;;;;;27.50;70.90;;;;;;5024086;28;19923;-72
2023/07/24 08:53:48;;;;;;;;;;;27.40;71.30;;;;;;5025315;28;19923;-72
2023/07/24 08:56:14;;;;;;;;;;;27.40;71.00;;;;;;5032694;28;19924;-72
2023/07/24 08:58:39;;;;;;;;;;;27.30;71.40;;;;;;5032091;28;19913;-72
2023/07/24 09:01:05;;;;;;;;;;;27.30;71.10;;;;;;5032734;28;19913;-73
2023/07/24 09:03:31;;;;;;;;;;;27.40;70.80;;;;;;5048652;28;19913;-73
2023/07/24 09:05:57;;;;;;;;;;;27.40;71.20;;;;;;5031218;28;19935;-73
2023/07/24 09:08:32;;;;;;;;;;;27.50;71.20;;;;;;5035790;28;19925;-73
2023/07/24 09:10:58;;;;;;;;;;;27.60;71.00;;;;;;5030827;28;19913;-72
2023/07/24 09:13:24;;;;;;;;;;;27.60;69.50;;;;;;4999105;28;19925;-73
2023/07/24 09:15:49;;;;;;;;;;;27.60;70.30;;;;;;5032928;28;20004;-72
2023/07/24 09:18:16;;;;;;;;;;;27.50;70.20;;;;;;5044361;28;19921;-72
2023/07/24 09:20:43;;;;;;;;;;;27.70;70.60;;;;;;5032821;28;20346;-72
2023/07/24 09:23:09;;;;;;;;;;;27.80;71.10;;;;;;5038998;28;19963;-72
2023/07/24 09:25:35;;;;;;;;;;;28.00;70.90;;;;;;5036759;28;20358;-72
2023/07/24 09:28:01;;;;;;;;;;;28.20;70.00;;;;;;5012388;28;19924;-72
2023/07/24 09:30:26;;;;;;;;;;;28.30;69.50;;;;;;5038055;28;19939;-72
2023/07/24 09:32:52;;;;;;;;;;;28.30;70.10;;;;;;5045171;28;19928;-72
2023/07/24 09:35:18;;;;;;;;;;;28.20;70.30;;;;;;5040770;28;19945;-72
2023/07/24 09:37:44;;;;;;;;;;;28.30;70.20;;;;;;5038973;28;19963;-72
2023/07/24 09:40:10;;;;;;;;;;;28.30;70.80;;;;;;5043574;28;19952;-72
2023/07/24 09:42:36;;;;;;;;;;;28.50;71.40;;;;;;5038044;28;19921;-72
2023/07/24 09:45:03;;;;;;;;;;;28.70;71.30;;;;;;5044615;28;20251;-72
2023/07/24 09:47:29;;;;;;;;;;;29.00;71.20;;;;;;5042083;28;19963;-72
2023/07/24 09:49:55;;;;;;;;;;;29.10;70.80;;;;;;5047175;28;19912;-72
2023/07/24 09:52:20;;;;;;;;;;;29.20;69.60;;;;;;5032142;28;19923;-72
2023/07/24 09:54:49;;;;;;;;;;;29.20;70.20;;;;;;5048910;28;20306;-72
2023/07/24 09:57:15;;;;;;;;;;;29.30;70.70;;;;;;5042532;28;19920;-72
2023/07/24 09:59:41;;;;;;;;;;;29.30;69.30;;;;;;5050708;28;19912;-72
2023/07/24 10:02:10;;;;;;;;;;;29.20;69.10;;;;;;5045955;28;20288;-72
2023/07/24 10:04:37;;;;;;;;;;;29.20;69.30;;;;;;5051604;28;20356;-72
2023/07/24 10:07:04;;;;;;;;;;;29.10;69.40;;;;;;5030744;28;20483;-72
2023/07/24 10:09:29;;;;;;;;;;;29.00;68.50;;;;;;5045089;28;20357;-73
2023/07/24 10:11:56;;;;;;;;;;;29.30;70.20;;;;;;5033357;28;19924;-72
2023/07/24 10:14:21;;;;;;;;;;;29.80;70.10;;;;;;5050846;28;20380;-71
2023/07/24 10:16:49;;;;;;;;;;;30.30;71.50;;;;;;5046770;28;20090;-72
2023/07/24 10:19:15;;;;;;;;;;;30.80;67.60;;;;;;5039855;28;19972;-72
2023/07/24 10:21:45;;;;;;;;;;;31.10;69.30;;;;;;5044294;28;20288;-72
2023/07/24 10:24:10;;;;;;;;;;;31.60;70.40;;;;;;5050994;28;20358;-72
2023/07/24 10:26:36;;;;;;;;;;;32.10;70.30;;;;;;5026909;28;19921;-73
2023/07/24 10:29:02;;;;;;;;;;;32.50;68.30;;;;;;5051364;28;20419;-73
2023/07/24 10:31:28;;;;;;;;;;;32.60;67.70;;;;;;5014540;28;19971;-73
2023/07/24 10:33:53;;;;;;;;;;;32.70;68.60;;;;;;5030996;28;19921;-73
2023/07/24 10:36:20;;;;;;;;;;;32.60;66.80;;;;;;5041266;28;19917;-72
2023/07/24 10:38:47;;;;;;;;;;;32.40;66.10;;;;;;5049783;28;19913;-71
2023/07/24 10:41:12;;;;;;;;;;;32.10;65.40;;;;;;5025421;28;19922;-72
2023/07/24 10:43:44;;;;;;;;;;;31.80;64.40;;;;;;5003701;28;19908;-74
2023/07/24 10:46:10;;;;;;;;;;;31.50;65.10;;;;;;5026293;28;19914;-73
2023/07/24 10:48:35;;;;;;;;;;;31.20;65.00;;;;;;5030167;28;19912;-72
2023/07/24 10:51:06;;;;;;;;;;;31.00;66.40;;;;;;5028318;28;19952;-73
2023/07/24 10:53:31;;;;;;;;;;;30.80;67.20;;;;;;5020622;28;20426;-73
2023/07/24 10:55:59;;;;;;;;;;;30.80;67.80;;;;;;5035325;28;19913;-73
2023/07/24 10:58:26;;;;;;;;;;;30.70;68.00;;;;;;5029876;28;19921;-73
2023/07/24 11:00:52;;;;;;;;;;;30.70;66.50;;;;;;5013316;28;19924;-73
2023/07/24 11:03:17;;;;;;;;;;;30.70;67.00;;;;;;5031230;28;19913;-73
2023/07/24 11:05:44;;;;;;;;;;;30.70;66.70;;;;;;5033101;28;20397;-73
2023/07/24 11:08:09;;;;;;;;;;;31.10;67.30;;;;;;5035921;28;19923;-74
2023/07/24 11:10:35;;;;;;;;;;;31.50;63.70;;;;;;5039056;28;20395;-73
2023/07/24 11:13:01;;;;;;;;;;;31.50;62.90;;;;;;5043096;28;19917;-72
2023/07/24 11:15:26;;;;;;;;;;;31.30;63.30;;;;;;5041648;28;20318;-67
2023/07/24 11:17:52;;;;;;;;;;;30.70;62.60;;;;;;5026466;28;20408;-67
2023/07/24 11:20:17;;;;;;;;;;;30.00;63.10;;;;;;5016648;28;20915;-67
2023/07/24 11:22:43;;;;;;;;;;;29.50;64.60;;;;;;5034442;28;20008;-68
2023/07/24 11:25:09;;;;;;;;;;;29.10;65.20;;;;;;5043750;28;19988;-68
2023/07/24 11:27:43;;;;;;;;;;;28.70;64.60;;;;;;5054038;28;19923;-68
2023/07/24 11:30:09;;;;;;;;;;;28.30;64.60;;;;;;5047048;28;20378;-67
2023/07/24 11:32:35;;;;;;;;;;;28.00;65.50;;;;;;5053270;28;19916;-67
2023/07/24 11:35:01;;;;;;;;;;;27.80;66.80;;;;;;5046276;28;19983;-67
2023/07/24 11:37:26;;;;;;;;;;;27.60;67.90;;;;;;5014525;28;19925;-68
2023/07/24 11:40:04;;;;;;;;;;;27.60;69.20;;;;;;5023933;28;19930;-67
2023/07/24 11:42:30;;;;;;;;;;;27.70;70.60;;;;;;5014707;28;20551;-68
2023/07/24 11:44:56;;;;;;;;;;;27.80;71.60;;;;;;5014290;28;20361;-68
2023/07/24 11:47:21;;;;;;;;;;;28.00;72.40;;;;;;5049568;28;19920;-68
2023/07/24 11:50:00;;;;;;;;;;;28.30;70.70;;;;;;5039334;28;19920;-68
2023/07/24 11:52:25;;;;;;;;;;;28.10;68.50;;;;;;5015508;28;19917;-67
2023/07/24 11:55:00;;;;;;;;;;;27.70;68.40;;;;;;5018002;28;19914;-67
2023/07/24 11:57:27;;;;;;;;;;;27.40;68.50;;;;;;5014667;28;19921;-67
2023/07/24 11:59:53;;;;;;;;;;;27.20;68.60;;;;;;5034034;28;19913;-67
2023/07/24 12:02:18;;;;;;;;;;;26.80;68.50;;;;;;5030668;28;20309;-68
2023/07/24 12:04:44;;;;;;;;;;;26.60;69.00;;;;;;5033481;28;20003;-68
2023/07/24 12:07:09;;;;;;;;;;;26.50;70.50;;;;;;4999542;28;19913;-68
2023/07/24 12:09:35;;;;;;;;;;;26.60;70.80;;;;;;5034088;28;19916;-68
2023/07/24 12:12:03;;;;;;;;;;;26.70;71.40;;;;;;5014703;28;19918;-68
2023/07/24 12:14:28;;;;;;;;;;;26.80;72.30;;;;;;5014284;28;20034;-68
2023/07/24 12:17:03;;;;;;;;;;;27.00;71.60;;;;;;5013600;28;20056;-68
2023/07/24 12:19:28;;;;;;;;;;;27.20;72.20;;;;;;5018514;28;19917;-67
2023/07/24 12:21:54;;;;;;;;;;;27.30;72.30;;;;;;5015411;28;19921;-68
2023/07/24 12:24:19;;;;;;;;;;;27.50;71.90;;;;;;5013917;28;19936;-68
2023/07/24 12:26:45;;;;;;;;;;;27.60;71.20;;;;;;5013595;28;19914;-69
2023/07/24 12:29:11;;;;;;;;;;;27.70;72.10;;;;;;5013377;28;20007;-69
2023/07/24 12:31:36;;;;;;;;;;;27.80;72.30;;;;;;5013683;28;19917;-68
2023/07/24 12:34:01;;;;;;;;;;;27.80;72.00;;;;;;5013428;28;19914;-69
2023/07/24 12:36:27;;;;;;;;;;;27.80;71.90;;;;;;5013301;28;20059;-69
2023/07/24 12:38:53;;;;;;;;;;;27.70;71.50;;;;;;5013370;28;20277;-69
2023/07/24 12:41:19;;;;;;;;;;;27.60;71.10;;;;;;5017516;28;19918;-69
2023/07/24 12:43:44;;;;;;;;;;;27.30;70.70;;;;;;5013263;28;19917;-68
2023/07/24 12:46:10;;;;;;;;;;;27.10;70.30;;;;;;5021469;28;19924;-68
2023/07/24 12:48:36;;;;;;;;;;;26.90;70.20;;;;;;5032854;28;20013;-69
2023/07/24 12:51:01;;;;;;;;;;;26.60;70.20;;;;;;5033115;28;20737;-68
2023/07/24 12:53:27;;;;;;;;;;;26.30;69.60;;;;;;5031179;28;20020;-69
2023/07/24 12:55:52;;;;;;;;;;;26.10;69.80;;;;;;5032872;28;19917;-68
2023/07/24 12:58:18;;;;;;;;;;;25.90;69.80;;;;;;5032615;28;19932;-69
2023/07/24 13:00:43;;;;;;;;;;;25.70;69.40;;;;;;5032617;28;20269;-71
2023/07/24 13:03:09;;;;;;;;;;;25.30;68.50;;;;;;5031222;28;20301;-70
2023/07/24 13:05:34;;;;;;;;;;;24.80;68.00;;;;;;5032492;28;19917;-70
2023/07/24 13:08:00;;;;;;;;;;;23.90;64.70;;;;;;5030492;28;19956;-70
2023/07/24 13:10:25;;;;;;;;;;;23.20;66.60;;;;;;5026565;28;20400;-68
2023/07/24 13:12:50;;;;;;;;;;;22.70;68.70;;;;;;5012717;28;19937;-68
2023/07/24 13:15:16;;;;;;;;;;;22.50;70.20;;;;;;5029543;28;19939;-68
2023/07/24 13:17:41;;;;;;;;;;;22.40;71.60;;;;;;5032762;28;19917;-68
2023/07/24 13:20:07;;;;;;;;;;;22.40;72.80;;;;;;5031403;28;19916;-68
2023/07/24 13:22:32;;;;;;;;;;;22.40;73.40;;;;;;5032511;28;19917;-68
2023/07/24 13:24:58;;;;;;;;;;;22.50;74.00;;;;;;5032595;28;19952;-68
2023/07/24 13:27:23;;;;;;;;;;;22.60;74.20;;;;;;5049840;28;19920;-68
2023/07/24 13:29:49;;;;;;;;;;;22.70;74.30;;;;;;5049922;28;19913;-68
2023/07/24 13:32:16;;;;;;;;;;;22.80;74.50;;;;;;5013661;28;19913;-68
2023/07/24 13:34:41;;;;;;;;;;;22.90;74.50;;;;;;5032254;28;19936;-68
2023/07/24 13:37:07;;;;;;;;;;;23.00;74.10;;;;;;5012789;28;19922;-68
2023/07/24 13:39:34;;;;;;;;;;;23.00;74.20;;;;;;5014722;28;20438;-67
2023/07/24 13:41:59;;;;;;;;;;;23.10;74.10;;;;;;5013125;28;19913;-68
2023/07/24 13:44:25;;;;;;;;;;;23.20;74.00;;;;;;5020424;28;19921;-68
2023/07/24 13:46:51;;;;;;;;;;;23.20;73.90;;;;;;5020678;28;19924;-68
2023/07/24 13:49:16;;;;;;;;;;;23.30;73.80;;;;;;5012556;28;20061;-68
2023/07/24 13:51:42;;;;;;;;;;;23.30;73.80;;;;;;5019973;28;20400;-67
2023/07/24 13:54:07;;;;;;;;;;;23.30;73.80;;;;;;5031783;28;20361;-68
2023/07/24 13:56:35;;;;;;;;;;;23.40;73.40;;;;;;5023254;28;20372;-67
2023/07/24 13:59:01;;;;;;;;;;;23.40;73.40;;;;;;5051871;28;19920;-67
2023/07/24 14:01:26;;;;;;;;;;;23.30;73.40;;;;;;5036079;28;20406;-68
2023/07/24 14:03:52;;;;;;;;;;;23.40;73.90;;;;;;5031643;28;20361;-68
2023/07/24 14:06:17;;;;;;;;;;;23.60;74.00;;;;;;5023557;28;19917;-68
2023/07/24 14:08:43;;;;;;;;;;;23.80;74.30;;;;;;5012261;28;20347;-68